Akutan, Alaska
Current Conditions -  °F | °C
As of 12:55 AM on Wednesday 26 Nov 2014 (Local Time) from PAUT Reporting Station
Overcast Overcast  
Wind Chill: 29°   Ceiling: 1900
Heat Index: 40°   Visibility: 10mi
Dew Point: 36°   Wind: 29mph
Humidity: 83%   Direction: 140°SE
Pressure: 30"   Gusts: 35mph
Location:  54.14°N, 165.77°W
Report Text: PAUT 260955Z AUTO 14025G30KT 10SM OVC019 05/02 A3000 RMK AO2 T00470021
Loading
Personal Weather Stations






























Interactive Weather Map New forecast layout! Learn more

10-Day Weather Forecast

Advertisements
Track Severe Weather on mobile